sensor_id;sensor_type;location;lat;lon;timestamp;P1;durP1;ratioP1;P2;durP2;ratioP2
80840;SDS011;70254;49.200;-122.910;2023-07-09T00:06:55;4.35;;;2.65;;
80840;SDS011;70254;49.200;-122.910;2023-07-09T00:09:57;5.07;;;2.70;;
80840;SDS011;70254;49.200;-122.910;2023-07-09T00:12:28;3.72;;;2.55;;
80840;SDS011;70254;49.200;-122.910;2023-07-09T00:14:56;4.40;;;2.70;;
80840;SDS011;70254;49.200;-122.910;2023-07-09T00:17:32;4.15;;;2.50;;
80840;SDS011;70254;49.200;-122.910;2023-07-09T00:20:00;3.85;;;2.78;;
80840;SDS011;70254;49.200;-122.910;2023-07-09T00:22:30;4.25;;;2.40;;
80840;SDS011;70254;49.200;-122.910;2023-07-09T00:25:04;4.75;;;2.80;;
80840;SDS011;70254;49.200;-122.910;2023-07-09T00:27:48;5.90;;;2.95;;
80840;SDS011;70254;49.200;-122.910;2023-07-09T00:30:20;5.78;;;2.70;;
80840;SDS011;70254;49.200;-122.910;2023-07-09T00:32:58;7.13;;;3.17;;
80840;SDS011;70254;49.200;-122.910;2023-07-09T00:35:29;4.90;;;3.05;;
80840;SDS011;70254;49.200;-122.910;2023-07-09T00:37:56;4.53;;;2.90;;
80840;SDS011;70254;49.200;-122.910;2023-07-09T00:40:31;6.20;;;3.20;;
80840;SDS011;70254;49.200;-122.910;2023-07-09T00:43:07;7.45;;;3.05;;
80840;SDS011;70254;49.200;-122.910;2023-07-09T00:46:07;5.15;;;2.70;;
80840;SDS011;70254;49.200;-122.910;2023-07-09T00:48:40;6.13;;;2.92;;
80840;SDS011;70254;49.200;-122.910;2023-07-09T00:51:17;5.10;;;3.10;;
80840;SDS011;70254;49.200;-122.910;2023-07-09T00:53:57;5.78;;;2.85;;
80840;SDS011;70254;49.200;-122.910;2023-07-09T01:14:06;6.22;;;2.92;;
80840;SDS011;70254;49.200;-122.910;2023-07-09T01:17:02;4.70;;;3.17;;
80840;SDS011;70254;49.200;-122.910;2023-07-09T01:19:42;4.03;;;2.80;;
80840;SDS011;70254;49.200;-122.910;2023-07-09T01:22:11;4.15;;;2.67;;
80840;SDS011;70254;49.200;-122.910;2023-07-09T01:27:35;5.07;;;2.50;;
80840;SDS011;70254;49.200;-122.910;2023-07-09T01:30:26;4.20;;;2.70;;
80840;SDS011;70254;49.200;-122.910;2023-07-09T01:33:02;4.53;;;3.05;;
80840;SDS011;70254;49.200;-122.910;2023-07-09T01:35:35;4.82;;;3.00;;
80840;SDS011;70254;49.200;-122.910;2023-07-09T01:38:12;4.00;;;2.38;;
80840;SDS011;70254;49.200;-122.910;2023-07-09T01:40:45;6.20;;;2.35;;
80840;SDS011;70254;49.200;-122.910;2023-07-09T01:43:16;4.43;;;2.55;;
80840;SDS011;70254;49.200;-122.910;2023-07-09T01:45:45;4.50;;;2.97;;
80840;SDS011;70254;49.200;-122.910;2023-07-09T01:48:26;4.32;;;2.60;;
80840;SDS011;70254;49.200;-122.910;2023-07-09T01:51:01;5.82;;;2.78;;
80840;SDS011;70254;49.200;-122.910;2023-07-09T01:53:34;6.45;;;2.97;;
80840;SDS011;70254;49.200;-122.910;2023-07-09T01:56:05;4.63;;;3.25;;
80840;SDS011;70254;49.200;-122.910;2023-07-09T02:01:11;4.85;;;2.90;;
80840;SDS011;70254;49.200;-122.910;2023-07-09T02:03:42;5.28;;;2.95;;
80840;SDS011;70254;49.200;-122.910;2023-07-09T02:06:28;4.28;;;2.67;;
80840;SDS011;70254;49.200;-122.910;2023-07-09T02:09:43;4.53;;;2.78;;
80840;SDS011;70254;49.200;-122.910;2023-07-09T02:12:14;5.15;;;2.97;;
80840;SDS011;70254;49.200;-122.910;2023-07-09T02:14:45;5.22;;;3.15;;
80840;SDS011;70254;49.200;-122.910;2023-07-09T02:17:33;4.63;;;3.28;;
80840;SDS011;70254;49.200;-122.910;2023-07-09T02:20:12;6.28;;;3.03;;
80840;SDS011;70254;49.200;-122.910;2023-07-09T02:23:25;3.53;;;2.83;;
80840;SDS011;70254;49.200;-122.910;2023-07-09T02:26:23;4.28;;;2.70;;
80840;SDS011;70254;49.200;-122.910;2023-07-09T02:28:52;3.80;;;2.60;;
80840;SDS011;70254;49.200;-122.910;2023-07-09T02:31:28;5.32;;;2.60;;
80840;SDS011;70254;49.200;-122.910;2023-07-09T02:33:58;3.55;;;2.40;;
80840;SDS011;70254;49.200;-122.910;2023-07-09T02:36:25;4.15;;;2.70;;
80840;SDS011;70254;49.200;-122.910;2023-07-09T02:38:54;3.33;;;2.45;;
80840;SDS011;70254;49.200;-122.910;2023-07-09T02:41:34;4.65;;;2.80;;
80840;SDS011;70254;49.200;-122.910;2023-07-09T02:44:08;4.20;;;2.50;;
80840;SDS011;70254;49.200;-122.910;2023-07-09T02:46:55;4.57;;;2.75;;
80840;SDS011;70254;49.200;-122.910;2023-07-09T02:49:34;5.95;;;2.58;;
80840;SDS011;70254;49.200;-122.910;2023-07-09T02:52:12;5.63;;;2.80;;
80840;SDS011;70254;49.200;-122.910;2023-07-09T02:55:10;6.13;;;3.03;;
80840;SDS011;70254;49.200;-122.910;2023-07-09T02:57:49;7.45;;;2.60;;
80840;SDS011;70254;49.200;-122.910;2023-07-09T03:00:17;4.43;;;2.50;;
80840;SDS011;70254;49.200;-122.910;2023-07-09T03:02:56;7.03;;;2.50;;
80840;SDS011;70254;49.200;-122.910;2023-07-09T03:05:33;3.72;;;2.47;;
80840;SDS011;70254;49.200;-122.910;2023-07-09T03:08:09;4.07;;;2.53;;
80840;SDS011;70254;49.200;-122.910;2023-07-09T03:10:44;5.47;;;2.65;;
80840;SDS011;70254;49.200;-122.910;2023-07-09T03:13:35;4.75;;;3.45;;
80840;SDS011;70254;49.200;-122.910;2023-07-09T03:16:04;8.35;;;3.92;;
80840;SDS011;70254;49.200;-122.910;2023-07-09T03:18:41;7.32;;;4.03;;
80840;SDS011;70254;49.200;-122.910;2023-07-09T03:23:49;4.47;;;2.40;;
80840;SDS011;70254;49.200;-122.910;2023-07-09T03:26:25;5.32;;;2.72;;
80840;SDS011;70254;49.200;-122.910;2023-07-09T03:28:52;4.25;;;2.60;;
80840;SDS011;70254;49.200;-122.910;2023-07-09T03:34:46;4.25;;;2.53;;
80840;SDS011;70254;49.200;-122.910;2023-07-09T03:37:13;4.00;;;2.42;;
80840;SDS011;70254;49.200;-122.910;2023-07-09T03:39:58;5.15;;;2.67;;
80840;SDS011;70254;49.200;-122.910;2023-07-09T03:42:24;3.45;;;2.47;;
80840;SDS011;70254;49.200;-122.910;2023-07-09T03:44:59;5.88;;;2.67;;
80840;SDS011;70254;49.200;-122.910;2023-07-09T03:47:29;7.70;;;3.38;;
80840;SDS011;70254;49.200;-122.910;2023-07-09T03:49:56;6.25;;;2.75;;
80840;SDS011;70254;49.200;-122.910;2023-07-09T03:52:26;4.97;;;2.80;;
80840;SDS011;70254;49.200;-122.910;2023-07-09T03:54:56;4.32;;;2.30;;
80840;SDS011;70254;49.200;-122.910;2023-07-09T03:57:40;7.22;;;2.58;;
80840;SDS011;70254;49.200;-122.910;2023-07-09T04:00:10;4.80;;;2.97;;
80840;SDS011;70254;49.200;-122.910;2023-07-09T04:02:38;4.43;;;2.50;;
80840;SDS011;70254;49.200;-122.910;2023-07-09T04:05:11;5.45;;;2.28;;
80840;SDS011;70254;49.200;-122.910;2023-07-09T04:07:37;4.97;;;2.40;;
80840;SDS011;70254;49.200;-122.910;2023-07-09T04:10:04;6.13;;;2.40;;
80840;SDS011;70254;49.200;-122.910;2023-07-09T04:12:35;4.28;;;2.20;;
80840;SDS011;70254;49.200;-122.910;2023-07-09T04:15:05;3.63;;;2.38;;
80840;SDS011;70254;49.200;-122.910;2023-07-09T04:17:35;5.25;;;2.63;;
80840;SDS011;70254;49.200;-122.910;2023-07-09T04:20:05;3.83;;;2.35;;
80840;SDS011;70254;49.200;-122.910;2023-07-09T04:22:34;4.95;;;2.50;;
80840;SDS011;70254;49.200;-122.910;2023-07-09T04:25:05;4.25;;;2.47;;
80840;SDS011;70254;49.200;-122.910;2023-07-09T04:27:37;11.73;;;6.72;;
80840;SDS011;70254;49.200;-122.910;2023-07-09T04:30:10;35.78;;;18.67;;
80840;SDS011;70254;49.200;-122.910;2023-07-09T04:32:44;83.22;;;42.88;;
80840;SDS011;70254;49.200;-122.910;2023-07-09T04:35:17;116.40;;;37.42;;
80840;SDS011;70254;49.200;-122.910;2023-07-09T04:37:44;9.30;;;5.55;;
80840;SDS011;70254;49.200;-122.910;2023-07-09T04:40:11;10.35;;;6.00;;
80840;SDS011;70254;49.200;-122.910;2023-07-09T04:42:44;6.78;;;4.05;;
80840;SDS011;70254;49.200;-122.910;2023-07-09T04:45:13;10.75;;;4.72;;
80840;SDS011;70254;49.200;-122.910;2023-07-09T04:47:45;5.30;;;3.13;;
80840;SDS011;70254;49.200;-122.910;2023-07-09T04:50:20;5.13;;;3.00;;
80840;SDS011;70254;49.200;-122.910;2023-07-09T04:55:18;4.88;;;2.75;;
80840;SDS011;70254;49.200;-122.910;2023-07-09T04:58:08;6.80;;;2.83;;
80840;SDS011;70254;49.200;-122.910;2023-07-09T05:00:38;4.53;;;2.80;;
80840;SDS011;70254;49.200;-122.910;2023-07-09T05:03:08;4.93;;;2.97;;
80840;SDS011;70254;49.200;-122.910;2023-07-09T05:05:53;4.50;;;2.58;;
80840;SDS011;70254;49.200;-122.910;2023-07-09T05:08:28;3.90;;;2.90;;
80840;SDS011;70254;49.200;-122.910;2023-07-09T05:10:58;5.47;;;2.00;;
80840;SDS011;70254;49.200;-122.910;2023-07-09T05:13:35;5.05;;;2.60;;
80840;SDS011;70254;49.200;-122.910;2023-07-09T05:16:08;5.22;;;2.80;;
80840;SDS011;70254;49.200;-122.910;2023-07-09T05:19:01;3.42;;;2.30;;
80840;SDS011;70254;49.200;-122.910;2023-07-09T05:21:31;4.65;;;2.42;;
80840;SDS011;70254;49.200;-122.910;2023-07-09T05:24:01;3.80;;;2.25;;
80840;SDS011;70254;49.200;-122.910;2023-07-09T05:29:10;6.70;;;3.40;;
80840;SDS011;70254;49.200;-122.910;2023-07-09T05:31:37;7.95;;;3.08;;
80840;SDS011;70254;49.200;-122.910;2023-07-09T05:34:17;4.72;;;2.30;;
80840;SDS011;70254;49.200;-122.910;2023-07-09T05:36:50;3.92;;;2.42;;
80840;SDS011;70254;49.200;-122.910;2023-07-09T05:39:39;5.68;;;2.30;;
80840;SDS011;70254;49.200;-122.910;2023-07-09T05:42:06;3.45;;;2.22;;
80840;SDS011;70254;49.200;-122.910;2023-07-09T05:44:33;3.83;;;2.33;;
80840;SDS011;70254;49.200;-122.910;2023-07-09T05:47:08;5.70;;;2.80;;
80840;SDS011;70254;49.200;-122.910;2023-07-09T05:52:33;4.43;;;2.25;;
80840;SDS011;70254;49.200;-122.910;2023-07-09T05:55:04;4.88;;;3.10;;
80840;SDS011;70254;49.200;-122.910;2023-07-09T05:58:08;3.78;;;2.40;;
80840;SDS011;70254;49.200;-122.910;2023-07-09T06:00:40;5.97;;;2.83;;
80840;SDS011;70254;49.200;-122.910;2023-07-09T06:03:10;4.45;;;2.40;;
80840;SDS011;70254;49.200;-122.910;2023-07-09T06:05:43;4.40;;;2.67;;
80840;SDS011;70254;49.200;-122.910;2023-07-09T06:08:11;4.20;;;2.60;;
80840;SDS011;70254;49.200;-122.910;2023-07-09T06:13:30;4.65;;;2.30;;
80840;SDS011;70254;49.200;-122.910;2023-07-09T06:16:12;4.93;;;2.63;;
80840;SDS011;70254;49.200;-122.910;2023-07-09T06:18:43;4.75;;;2.45;;
80840;SDS011;70254;49.200;-122.910;2023-07-09T06:23:45;8.25;;;2.75;;
80840;SDS011;70254;49.200;-122.910;2023-07-09T06:26:29;6.15;;;3.28;;
80840;SDS011;70254;49.200;-122.910;2023-07-09T06:29:05;5.85;;;3.00;;
80840;SDS011;70254;49.200;-122.910;2023-07-09T06:31:32;5.95;;;2.60;;
80840;SDS011;70254;49.200;-122.910;2023-07-09T06:33:59;4.57;;;2.40;;
80840;SDS011;70254;49.200;-122.910;2023-07-09T06:36:29;5.18;;;2.45;;
80840;SDS011;70254;49.200;-122.910;2023-07-09T06:38:58;6.78;;;2.40;;
80840;SDS011;70254;49.200;-122.910;2023-07-09T06:41:49;4.88;;;2.80;;
80840;SDS011;70254;49.200;-122.910;2023-07-09T06:44:15;5.00;;;2.33;;
80840;SDS011;70254;49.200;-122.910;2023-07-09T06:46:42;4.50;;;2.25;;
80840;SDS011;70254;49.200;-122.910;2023-07-09T06:49:13;5.10;;;2.42;;
80840;SDS011;70254;49.200;-122.910;2023-07-09T06:51:54;4.35;;;2.55;;
80840;SDS011;70254;49.200;-122.910;2023-07-09T06:54:25;4.82;;;2.67;;
80840;SDS011;70254;49.200;-122.910;2023-07-09T06:56:55;4.50;;;2.78;;
80840;SDS011;70254;49.200;-122.910;2023-07-09T06:59:27;5.40;;;3.50;;
80840;SDS011;70254;49.200;-122.910;2023-07-09T07:01:54;4.93;;;2.80;;
80840;SDS011;70254;49.200;-122.910;2023-07-09T07:04:32;5.75;;;4.10;;
80840;SDS011;70254;49.200;-122.910;2023-07-09T07:07:01;6.50;;;2.47;;
80840;SDS011;70254;49.200;-122.910;2023-07-09T07:09:28;5.18;;;3.65;;
80840;SDS011;70254;49.200;-122.910;2023-07-09T07:11:58;8.43;;;3.20;;
80840;SDS011;70254;49.200;-122.910;2023-07-09T07:14:34;5.60;;;2.53;;
80840;SDS011;70254;49.200;-122.910;2023-07-09T07:17:01;7.80;;;2.70;;
80840;SDS011;70254;49.200;-122.910;2023-07-09T07:19:42;7.18;;;2.63;;
80840;SDS011;70254;49.200;-122.910;2023-07-09T07:22:13;6.40;;;3.47;;
80840;SDS011;70254;49.200;-122.910;2023-07-09T07:24:43;4.78;;;2.55;;
80840;SDS011;70254;49.200;-122.910;2023-07-09T07:27:10;26.55;;;11.20;;
80840;SDS011;70254;49.200;-122.910;2023-07-09T07:29:36;4.50;;;2.47;;
80840;SDS011;70254;49.200;-122.910;2023-07-09T07:32:03;5.40;;;2.60;;
80840;SDS011;70254;49.200;-122.910;2023-07-09T07:37:07;6.40;;;3.13;;
80840;SDS011;70254;49.200;-122.910;2023-07-09T07:39:40;5.38;;;2.67;;
80840;SDS011;70254;49.200;-122.910;2023-07-09T07:42:09;5.93;;;2.50;;
80840;SDS011;70254;49.200;-122.910;2023-07-09T07:44:39;5.03;;;2.45;;
80840;SDS011;70254;49.200;-122.910;2023-07-09T07:47:30;6.15;;;2.70;;
80840;SDS011;70254;49.200;-122.910;2023-07-09T07:50:06;8.40;;;3.00;;
80840;SDS011;70254;49.200;-122.910;2023-07-09T07:52:34;10.85;;;4.93;;
80840;SDS011;70254;49.200;-122.910;2023-07-09T07:55:07;3.83;;;2.50;;
80840;SDS011;70254;49.200;-122.910;2023-07-09T07:57:34;5.05;;;2.50;;
80840;SDS011;70254;49.200;-122.910;2023-07-09T08:00:24;9.05;;;2.72;;
80840;SDS011;70254;49.200;-122.910;2023-07-09T08:02:54;3.47;;;2.40;;
80840;SDS011;70254;49.200;-122.910;2023-07-09T08:05:22;6.03;;;2.70;;
80840;SDS011;70254;49.200;-122.910;2023-07-09T08:07:50;5.47;;;2.50;;
80840;SDS011;70254;49.200;-122.910;2023-07-09T08:10:18;5.13;;;2.60;;
80840;SDS011;70254;49.200;-122.910;2023-07-09T08:12:46;6.68;;;2.72;;
80840;SDS011;70254;49.200;-122.910;2023-07-09T08:15:16;10.68;;;3.58;;
80840;SDS011;70254;49.200;-122.910;2023-07-09T08:17:45;7.05;;;3.67;;
80840;SDS011;70254;49.200;-122.910;2023-07-09T08:20:18;5.88;;;2.80;;
80840;SDS011;70254;49.200;-122.910;2023-07-09T08:22:55;6.32;;;2.65;;
80840;SDS011;70254;49.200;-122.910;2023-07-09T08:25:21;4.68;;;2.53;;
80840;SDS011;70254;49.200;-122.910;2023-07-09T08:27:52;5.07;;;2.55;;
80840;SDS011;70254;49.200;-122.910;2023-07-09T08:30:19;6.68;;;2.25;;
80840;SDS011;70254;49.200;-122.910;2023-07-09T08:32:45;3.80;;;2.65;;
80840;SDS011;70254;49.200;-122.910;2023-07-09T08:37:43;5.47;;;2.88;;
80840;SDS011;70254;49.200;-122.910;2023-07-09T08:46:44;4.90;;;3.33;;
80840;SDS011;70254;49.200;-122.910;2023-07-09T08:49:21;6.13;;;2.40;;
80840;SDS011;70254;49.200;-122.910;2023-07-09T08:51:58;5.60;;;2.63;;
80840;SDS011;70254;49.200;-122.910;2023-07-09T08:54:32;5.07;;;2.63;;
80840;SDS011;70254;49.200;-122.910;2023-07-09T08:59:51;4.20;;;2.38;;
80840;SDS011;70254;49.200;-122.910;2023-07-09T09:02:31;4.97;;;2.67;;
80840;SDS011;70254;49.200;-122.910;2023-07-09T09:05:04;5.50;;;3.10;;
80840;SDS011;70254;49.200;-122.910;2023-07-09T09:10:48;5.70;;;2.75;;
80840;SDS011;70254;49.200;-122.910;2023-07-09T09:13:37;7.78;;;2.72;;
80840;SDS011;70254;49.200;-122.910;2023-07-09T09:16:13;4.95;;;2.92;;
80840;SDS011;70254;49.200;-122.910;2023-07-09T09:21:44;5.95;;;2.50;;
80840;SDS011;70254;49.200;-122.910;2023-07-09T09:24:19;7.45;;;2.72;;
80840;SDS011;70254;49.200;-122.910;2023-07-09T09:27:12;5.32;;;2.97;;
80840;SDS011;70254;49.200;-122.910;2023-07-09T09:29:45;4.82;;;2.78;;
80840;SDS011;70254;49.200;-122.910;2023-07-09T09:32:39;4.97;;;2.40;;
80840;SDS011;70254;49.200;-122.910;2023-07-09T09:35:16;3.95;;;2.67;;
80840;SDS011;70254;49.200;-122.910;2023-07-09T09:37:50;8.60;;;2.97;;
80840;SDS011;70254;49.200;-122.910;2023-07-09T09:40:34;5.78;;;2.80;;
80840;SDS011;70254;49.200;-122.910;2023-07-09T09:46:52;5.85;;;3.00;;
80840;SDS011;70254;49.200;-122.910;2023-07-09T09:49:25;4.03;;;2.42;;
80840;SDS011;70254;49.200;-122.910;2023-07-09T09:52:01;6.70;;;3.15;;
80840;SDS011;70254;49.200;-122.910;2023-07-09T09:54:32;6.57;;;2.80;;
80840;SDS011;70254;49.200;-122.910;2023-07-09T09:57:19;5.82;;;3.00;;
80840;SDS011;70254;49.200;-122.910;2023-07-09T09:59:58;6.30;;;2.80;;
80840;SDS011;70254;49.200;-122.910;2023-07-09T10:02:25;7.85;;;2.75;;
80840;SDS011;70254;49.200;-122.910;2023-07-09T10:04:55;5.38;;;2.30;;
80840;SDS011;70254;49.200;-122.910;2023-07-09T10:07:30;3.83;;;2.60;;
80840;SDS011;70254;49.200;-122.910;2023-07-09T10:10:01;5.53;;;2.47;;
80840;SDS011;70254;49.200;-122.910;2023-07-09T10:15:45;4.47;;;2.10;;
80840;SDS011;70254;49.200;-122.910;2023-07-09T10:21:17;4.22;;;2.38;;
80840;SDS011;70254;49.200;-122.910;2023-07-09T10:29:23;5.07;;;2.65;;
80840;SDS011;70254;49.200;-122.910;2023-07-09T10:35:04;6.68;;;2.70;;
80840;SDS011;70254;49.200;-122.910;2023-07-09T10:40:28;6.57;;;2.70;;
80840;SDS011;70254;49.200;-122.910;2023-07-09T10:43:04;4.25;;;2.47;;
80840;SDS011;70254;49.200;-122.910;2023-07-09T10:45:49;8.18;;;4.25;;
80840;SDS011;70254;49.200;-122.910;2023-07-09T10:48:37;5.30;;;2.85;;
80840;SDS011;70254;49.200;-122.910;2023-07-09T10:51:15;6.85;;;3.13;;
80840;SDS011;70254;49.200;-122.910;2023-07-09T10:54:01;4.45;;;2.38;;
80840;SDS011;70254;49.200;-122.910;2023-07-09T10:56:33;5.05;;;3.05;;
80840;SDS011;70254;49.200;-122.910;2023-07-09T11:02:13;4.07;;;2.67;;
80840;SDS011;70254;49.200;-122.910;2023-07-09T11:05:01;5.15;;;2.47;;
80840;SDS011;70254;49.200;-122.910;2023-07-09T11:13:05;4.20;;;2.75;;
80840;SDS011;70254;49.200;-122.910;2023-07-09T11:15:46;4.90;;;2.60;;
80840;SDS011;70254;49.200;-122.910;2023-07-09T11:18:26;4.93;;;2.90;;
80840;SDS011;70254;49.200;-122.910;2023-07-09T11:21:06;6.32;;;4.28;;
80840;SDS011;70254;49.200;-122.910;2023-07-09T11:23:44;5.75;;;2.70;;
80840;SDS011;70254;49.200;-122.910;2023-07-09T11:26:36;3.80;;;2.55;;
80840;SDS011;70254;49.200;-122.910;2023-07-09T11:29:16;5.75;;;2.85;;
80840;SDS011;70254;49.200;-122.910;2023-07-09T11:31:44;5.20;;;3.15;;
80840;SDS011;70254;49.200;-122.910;2023-07-09T11:39:23;5.20;;;3.03;;
80840;SDS011;70254;49.200;-122.910;2023-07-09T11:42:04;4.82;;;3.05;;
80840;SDS011;70254;49.200;-122.910;2023-07-09T11:45:00;7.00;;;2.80;;
80840;SDS011;70254;49.200;-122.910;2023-07-09T11:47:49;7.40;;;3.55;;
80840;SDS011;70254;49.200;-122.910;2023-07-09T11:50:33;7.32;;;3.03;;
80840;SDS011;70254;49.200;-122.910;2023-07-09T11:53:51;7.30;;;4.30;;
80840;SDS011;70254;49.200;-122.910;2023-07-09T11:56:09;10.73;;;4.55;;
80840;SDS011;70254;49.200;-122.910;2023-07-09T11:58:52;4.78;;;2.60;;
80840;SDS011;70254;49.200;-122.910;2023-07-09T12:01:26;5.78;;;2.95;;
80840;SDS011;70254;49.200;-122.910;2023-07-09T12:06:57;5.47;;;2.58;;
80840;SDS011;70254;49.200;-122.910;2023-07-09T12:09:37;9.82;;;3.08;;
80840;SDS011;70254;49.200;-122.910;2023-07-09T12:12:21;7.32;;;2.60;;
80840;SDS011;70254;49.200;-122.910;2023-07-09T12:14:51;7.32;;;2.83;;
80840;SDS011;70254;49.200;-122.910;2023-07-09T12:17:27;5.05;;;2.58;;
80840;SDS011;70254;49.200;-122.910;2023-07-09T12:19:58;5.55;;;3.08;;
80840;SDS011;70254;49.200;-122.910;2023-07-09T12:22:34;6.18;;;3.20;;
80840;SDS011;70254;49.200;-122.910;2023-07-09T12:25:02;8.05;;;4.60;;
80840;SDS011;70254;49.200;-122.910;2023-07-09T12:27:33;7.28;;;4.00;;
80840;SDS011;70254;49.200;-122.910;2023-07-09T12:30:09;6.70;;;3.50;;
80840;SDS011;70254;49.200;-122.910;2023-07-09T12:32:45;5.28;;;3.38;;
80840;SDS011;70254;49.200;-122.910;2023-07-09T12:35:19;7.10;;;3.30;;
80840;SDS011;70254;49.200;-122.910;2023-07-09T12:37:55;5.50;;;2.97;;
80840;SDS011;70254;49.200;-122.910;2023-07-09T12:40:27;8.15;;;3.45;;
80840;SDS011;70254;49.200;-122.910;2023-07-09T12:43:19;7.03;;;3.08;;
80840;SDS011;70254;49.200;-122.910;2023-07-09T12:45:56;5.10;;;3.22;;
80840;SDS011;70254;49.200;-122.910;2023-07-09T12:48:27;5.38;;;3.40;;
80840;SDS011;70254;49.200;-122.910;2023-07-09T12:50:58;5.97;;;2.78;;
80840;SDS011;70254;49.200;-122.910;2023-07-09T12:56:13;5.30;;;3.00;;
80840;SDS011;70254;49.200;-122.910;2023-07-09T12:58:45;8.68;;;2.90;;
80840;SDS011;70254;49.200;-122.910;2023-07-09T13:01:15;6.35;;;3.05;;
80840;SDS011;70254;49.200;-122.910;2023-07-09T13:03:51;6.50;;;3.20;;
80840;SDS011;70254;49.200;-122.910;2023-07-09T13:06:25;5.40;;;3.35;;
80840;SDS011;70254;49.200;-122.910;2023-07-09T13:08:57;4.90;;;3.15;;
80840;SDS011;70254;49.200;-122.910;2023-07-09T13:11:34;4.90;;;3.90;;
80840;SDS011;70254;49.200;-122.910;2023-07-09T13:14:05;6.45;;;3.38;;
80840;SDS011;70254;49.200;-122.910;2023-07-09T13:30:11;6.00;;;3.10;;
80840;SDS011;70254;49.200;-122.910;2023-07-09T13:35:16;7.65;;;3.83;;
80840;SDS011;70254;49.200;-122.910;2023-07-09T13:37:50;6.45;;;3.78;;
80840;SDS011;70254;49.200;-122.910;2023-07-09T13:40:19;6.22;;;3.30;;
80840;SDS011;70254;49.200;-122.910;2023-07-09T13:42:57;7.20;;;3.30;;
80840;SDS011;70254;49.200;-122.910;2023-07-09T13:45:25;6.80;;;3.30;;
80840;SDS011;70254;49.200;-122.910;2023-07-09T13:47:55;8.95;;;3.45;;
80840;SDS011;70254;49.200;-122.910;2023-07-09T13:50:46;6.50;;;3.55;;
80840;SDS011;70254;49.200;-122.910;2023-07-09T13:53:18;7.25;;;2.95;;
80840;SDS011;70254;49.200;-122.910;2023-07-09T13:56:04;8.10;;;3.03;;
80840;SDS011;70254;49.200;-122.910;2023-07-09T13:58:31;7.32;;;3.38;;
80840;SDS011;70254;49.200;-122.910;2023-07-09T14:01:08;5.22;;;3.05;;
80840;SDS011;70254;49.200;-122.910;2023-07-09T14:03:38;6.32;;;3.22;;
80840;SDS011;70254;49.200;-122.910;2023-07-09T14:06:12;7.43;;;3.13;;
80840;SDS011;70254;49.200;-122.910;2023-07-09T14:08:47;7.63;;;3.33;;
80840;SDS011;70254;49.200;-122.910;2023-07-09T14:11:28;5.13;;;3.20;;
80840;SDS011;70254;49.200;-122.910;2023-07-09T14:13:56;4.38;;;3.13;;
80840;SDS011;70254;49.200;-122.910;2023-07-09T14:16:29;5.15;;;2.83;;
80840;SDS011;70254;49.200;-122.910;2023-07-09T14:19:00;6.20;;;3.35;;
80840;SDS011;70254;49.200;-122.910;2023-07-09T14:21:51;7.85;;;3.63;;
80840;SDS011;70254;49.200;-122.910;2023-07-09T14:24:25;5.30;;;3.10;;
80840;SDS011;70254;49.200;-122.910;2023-07-09T14:26:56;5.95;;;3.97;;
80840;SDS011;70254;49.200;-122.910;2023-07-09T14:29:24;6.60;;;3.63;;
80840;SDS011;70254;49.200;-122.910;2023-07-09T14:32:04;6.35;;;3.50;;
80840;SDS011;70254;49.200;-122.910;2023-07-09T14:34:32;7.60;;;3.45;;
80840;SDS011;70254;49.200;-122.910;2023-07-09T14:37:03;6.00;;;2.97;;
80840;SDS011;70254;49.200;-122.910;2023-07-09T14:39:34;6.13;;;3.20;;
80840;SDS011;70254;49.200;-122.910;2023-07-09T14:45:25;7.47;;;3.42;;
80840;SDS011;70254;49.200;-122.910;2023-07-09T14:48:07;7.47;;;3.22;;
80840;SDS011;70254;49.200;-122.910;2023-07-09T14:50:43;7.95;;;3.13;;
80840;SDS011;70254;49.200;-122.910;2023-07-09T14:53:48;6.80;;;3.05;;
80840;SDS011;70254;49.200;-122.910;2023-07-09T14:56:27;6.30;;;3.25;;
80840;SDS011;70254;49.200;-122.910;2023-07-09T14:58:57;8.50;;;3.30;;
80840;SDS011;70254;49.200;-122.910;2023-07-09T15:06:51;5.55;;;3.00;;
80840;SDS011;70254;49.200;-122.910;2023-07-09T15:12:22;6.15;;;2.25;;
80840;SDS011;70254;49.200;-122.910;2023-07-09T15:18:10;4.68;;;2.53;;
80840;SDS011;70254;49.200;-122.910;2023-07-09T15:20:50;5.88;;;2.90;;
80840;SDS011;70254;49.200;-122.910;2023-07-09T15:23:22;7.63;;;3.25;;
80840;SDS011;70254;49.200;-122.910;2023-07-09T15:25:52;5.78;;;2.70;;
80840;SDS011;70254;49.200;-122.910;2023-07-09T15:28:33;6.10;;;2.53;;
80840;SDS011;70254;49.200;-122.910;2023-07-09T15:34:29;7.50;;;2.97;;
80840;SDS011;70254;49.200;-122.910;2023-07-09T15:37:18;5.80;;;3.03;;
80840;SDS011;70254;49.200;-122.910;2023-07-09T15:39:54;5.10;;;2.53;;
80840;SDS011;70254;49.200;-122.910;2023-07-09T15:42:24;6.40;;;2.97;;
80840;SDS011;70254;49.200;-122.910;2023-07-09T15:45:00;7.03;;;2.83;;
80840;SDS011;70254;49.200;-122.910;2023-07-09T15:47:47;6.32;;;2.55;;
80840;SDS011;70254;49.200;-122.910;2023-07-09T15:50:27;7.40;;;2.80;;
80840;SDS011;70254;49.200;-122.910;2023-07-09T15:56:28;4.97;;;2.67;;
80840;SDS011;70254;49.200;-122.910;2023-07-09T16:02:09;6.28;;;2.63;;
80840;SDS011;70254;49.200;-122.910;2023-07-09T16:04:46;4.03;;;2.20;;
80840;SDS011;70254;49.200;-122.910;2023-07-09T16:07:25;4.18;;;2.20;;
80840;SDS011;70254;49.200;-122.910;2023-07-09T16:10:01;9.43;;;3.00;;
80840;SDS011;70254;49.200;-122.910;2023-07-09T16:12:28;8.77;;;2.78;;
80840;SDS011;70254;49.200;-122.910;2023-07-09T16:14:55;6.80;;;3.17;;
80840;SDS011;70254;49.200;-122.910;2023-07-09T16:17:29;7.68;;;2.72;;
80840;SDS011;70254;49.200;-122.910;2023-07-09T16:19:56;5.60;;;2.78;;
80840;SDS011;70254;49.200;-122.910;2023-07-09T16:22:33;4.75;;;2.72;;
80840;SDS011;70254;49.200;-122.910;2023-07-09T16:25:12;5.38;;;2.75;;
80840;SDS011;70254;49.200;-122.910;2023-07-09T16:27:43;7.47;;;3.13;;
80840;SDS011;70254;49.200;-122.910;2023-07-09T16:30:23;5.50;;;3.05;;
80840;SDS011;70254;49.200;-122.910;2023-07-09T16:32:59;5.97;;;2.78;;
80840;SDS011;70254;49.200;-122.910;2023-07-09T16:35:44;5.47;;;2.72;;
80840;SDS011;70254;49.200;-122.910;2023-07-09T16:38:22;5.82;;;2.42;;
80840;SDS011;70254;49.200;-122.910;2023-07-09T16:40:58;6.72;;;2.88;;
80840;SDS011;70254;49.200;-122.910;2023-07-09T16:43:28;6.05;;;2.88;;
80840;SDS011;70254;49.200;-122.910;2023-07-09T16:46:16;6.78;;;2.35;;
80840;SDS011;70254;49.200;-122.910;2023-07-09T16:48:56;6.55;;;2.75;;
80840;SDS011;70254;49.200;-122.910;2023-07-09T16:51:33;5.25;;;2.47;;
80840;SDS011;70254;49.200;-122.910;2023-07-09T16:56:28;7.47;;;2.60;;
80840;SDS011;70254;49.200;-122.910;2023-07-09T16:59:22;5.75;;;2.70;;
80840;SDS011;70254;49.200;-122.910;2023-07-09T17:01:58;5.18;;;2.45;;
80840;SDS011;70254;49.200;-122.910;2023-07-09T17:04:46;7.68;;;2.80;;
80840;SDS011;70254;49.200;-122.910;2023-07-09T17:07:50;4.57;;;2.80;;
80840;SDS011;70254;49.200;-122.910;2023-07-09T17:10:26;5.97;;;2.90;;
80840;SDS011;70254;49.200;-122.910;2023-07-09T17:20:05;8.65;;;2.83;;
80840;SDS011;70254;49.200;-122.910;2023-07-09T17:22:39;7.13;;;3.45;;
80840;SDS011;70254;49.200;-122.910;2023-07-09T17:28:48;7.00;;;2.95;;
80840;SDS011;70254;49.200;-122.910;2023-07-09T17:31:39;8.02;;;3.20;;
80840;SDS011;70254;49.200;-122.910;2023-07-09T17:34:29;5.95;;;2.58;;
80840;SDS011;70254;49.200;-122.910;2023-07-09T17:37:14;4.47;;;2.72;;
80840;SDS011;70254;49.200;-122.910;2023-07-09T17:40:08;9.70;;;3.40;;